Wokal Field Glasgow International Airport
KGGW : now visible

Airfield :











YOU CAN JOIN US ON...

 
LOGIN :

Register | Disclaimer

   EN    FR    IT 

 









Legend :    VFR   Marginal VFR   IFR   Intensive IFR   Very Intensive IFR
Visi :
Ceiling :
>= 8 km
>= 3000ft
5 to 8 km
1000 to 3000 ft
1500m to 5 km
500 to 1000 ft
800 to 1500m
200 to 500 ft
< 800m
< 200 ft
Symbols :   Thunderstorms  Fog  Heavy snow  Heavy precipitations  Wind > 20 kt






- Airport Elevation : 2296 ft
- IATA code : GGW


KGGW - Wokal Field Glasgow International

CURRENT METAR :
  • 162053Z AUTO 20008KT 10SM CLR 36/08 A2998 RMK AO2 SLP135 T03610078 56014 $

EXPIRED METARs :
  • 161953Z AUTO 14012G23KT 10SM CLR 36/08 A2999 RMK AO2 SLP138 T03560078
  • 161853Z AUTO 19012KT 10SM CLR 35/08 A3001 RMK AO2 SLP144 T03500083

TAF KGGW
Valid from the 16 at 18:00 until the 17 at 18:00 UTC


161720Z 1618/1718 14010KT P6SM SKC
FM170600 11011G20KT P6SM FEW100
FM170800 11009KT P6SM FEW100
KZLC FIR / North America



MET'MAP, your aeronautical weather chart ! - Copyright ORBIFLY December 2007 - Disclaimer

ORBIFLY MET'MAP TEAM :

Programming & Development : Alexandra Zaïnal
Original concept : Baudouin d'Aumeries
Technical & hardware support : Manuel Goepfert
Assistance : Marc-Olivier Méhu




SOURCES & CREDITS :

   NOAA       Earth
Advisory